ウランバートル の空港の天気 - METARとTAF

チンギスハーン国際空港 ( ZMUB / ULN ) - モンゴル ウランバートル
飛行場実況気象(Metar)
観測時間10/16 01:00 ULAT (10/15 17:00 UTC)
風向・風速静穏 0m/s
視程10km以上
天気現象
なし
気温-10℃
湿度57%
気圧1027hPa
METARZMUB 151700Z 00000MPS CAVOK M10/M17 Q1027 NOSIG RMK QFE661.9 54
過去の天気等 Google飛行場航空写真 Wunderground天気予報

過去48時間のMETAR

飛行場予報(TAF)
発表時間: 10/16 00:40 ULAT (10/15 16:40 UTC)
予報対象時間: 16日2時 ULAT ~ 17日8時 ULAT
風向・風速不定 2m/s
視程10km以上
なし
16日6時 ULAT ~ 16日8時 ULAT に徐々に
視程8000m
全天の4割程度の雲 雲底高度 3050m
16日12時 ULAT ~ 16日14時 ULAT に徐々に
風向・風速南南東 5m/s
視程10km以上
天気現象運行に影響にある天気現象が終了
16日20時 ULAT ~ 16日22時 ULAT に徐々に
風向・風速不定 2m/s
TAF ZMUB 151640Z 1518/1624 VRB02MPS CAVOK TNM14/1523Z TX11/1606Z
BECMG 1522/1524 8000 SCT100
BECMG 1604/1606 16005MPS 9999 NSW
BECMG 1612/1614 VRB02MPS